Alton, Utah
Current Conditions -  °F | °C
As of 7:53 AM on Thursday 23 Oct 2014 (Local Time) from KBCE Reporting Station
Clear Clear  
Wind Chill: 22°   Ceiling: Unl
Heat Index: 28°   Visibility: 10mi
Dew Point: 22°   Wind: 6mph
Humidity: 78%   Direction: 280°W
Pressure: 30.33"   Gusts: NA
Location:  37.44°N, 112.48°W
Report Text: KBCE 231353Z AUTO 28005KT 10SM CLR M02/M06 A3033 RMK AO2 SLP222 T10221056 TSNO
Loading
Personal Weather Stations






























Interactive Weather Map
Tropical Storm Tracking
New forecast layout! Learn more

10-Day Weather Forecast

Advertisements
Track Severe Weather on mobile